createdAt,value
2022-12-11T00:02:01.372Z,100519.25
2022-12-11T00:04:29.145Z,100518.38
2022-12-11T00:06:57.168Z,100516.63
2022-12-11T00:09:26.428Z,100525.28
2022-12-11T00:11:54.167Z,100532.19
2022-12-11T00:14:21.932Z,100519.38
2022-12-11T00:16:50.124Z,100510.06
2022-12-11T00:19:18.151Z,100513.56
2022-12-11T00:21:45.904Z,100514.38
2022-12-11T00:24:13.707Z,100510.13
2022-12-11T00:26:42.777Z,100513.69
2022-12-11T00:29:14.392Z,100508.50
2022-12-11T00:31:42.799Z,100505.91
2022-12-11T00:34:11.969Z,100503.28
2022-12-11T00:36:40.640Z,100512.75
2022-12-11T00:39:08.452Z,100511.00
2022-12-11T00:41:36.276Z,100511.75
2022-12-11T00:44:05.848Z,100511.00
2022-12-11T00:46:33.575Z,100500.66
2022-12-11T00:49:01.293Z,100499.84
2022-12-11T00:51:29.084Z,100495.66
2022-12-11T00:53:56.851Z,100508.56
2022-12-11T00:56:25.205Z,100509.38
2022-12-11T00:58:53.146Z,100507.69
2022-12-11T01:01:24.552Z,100509.38
2022-12-11T01:03:53.722Z,100506.06
2022-12-11T01:06:23.527Z,100508.56
2022-12-11T01:09:13.282Z,100511.13
2022-12-11T01:11:41.071Z,100506.88
2022-12-11T01:14:09.543Z,100504.38
2022-12-11T01:16:38.747Z,100512.06
2022-12-11T01:19:06.580Z,100501.03
2022-12-11T01:21:34.332Z,100504.38
2022-12-11T01:24:02.102Z,100502.59
2022-12-11T01:26:30.642Z,100510.41
2022-12-11T01:28:58.458Z,100509.44
2022-12-11T01:31:26.480Z,100505.13
2022-12-11T01:33:56.915Z,100496.63
2022-12-11T01:36:24.944Z,100495.84
2022-12-11T01:38:54.299Z,100495.03
2022-12-11T01:41:22.355Z,100492.53
2022-12-11T01:44:05.009Z,100490.88
2022-12-11T01:46:35.016Z,100488.31
2022-12-11T01:49:07.123Z,100493.47
2022-12-11T01:51:39.964Z,100488.31
2022-12-11T01:54:12.692Z,100482.31
2022-12-11T01:56:44.951Z,100493.41
2022-12-11T01:59:16.622Z,100484.88
2022-12-11T02:01:50.232Z,100484.94
2022-12-11T02:04:20.966Z,100485.75
2022-12-11T02:06:51.819Z,100486.56
2022-12-11T02:09:22.998Z,100479.81
2022-12-11T02:11:57.838Z,100483.19
2022-12-11T02:14:33.125Z,100489.28
2022-12-11T02:17:05.902Z,100481.50
2022-12-11T02:19:49.437Z,100475.53
2022-12-11T02:22:28.630Z,100474.66
2022-12-11T02:25:10.825Z,100473.72
2022-12-11T02:27:44.174Z,100477.03
2022-12-11T02:30:15.714Z,100470.97
2022-12-11T02:32:48.248Z,100473.56
2022-12-11T02:35:21.426Z,100464.94
2022-12-11T02:37:52.840Z,100471.59
2022-12-11T02:40:26.244Z,100471.59
2022-12-11T02:42:56.922Z,100472.34
2022-12-11T02:45:28.253Z,100466.25
2022-12-11T02:47:58.839Z,100476.72
2022-12-11T02:50:27.922Z,100471.41
2022-12-11T02:52:58.234Z,100473.16
2022-12-11T02:55:29.254Z,100472.28
2022-12-11T02:58:03.724Z,100467.16
2022-12-11T03:00:33.083Z,100463.88
2022-12-11T03:03:01.019Z,100459.75
2022-12-11T03:05:28.816Z,100464.81
2022-12-11T03:07:56.593Z,100460.38
2022-12-11T03:10:25.322Z,100461.31
2022-12-11T03:12:56.479Z,100464.75
2022-12-11T03:15:32.918Z,100471.25
2022-12-11T03:18:08.579Z,100461.94
2022-12-11T03:20:40.583Z,100460.13
2022-12-11T03:23:17.830Z,100468.69
2022-12-11T03:25:53.366Z,100462.66
2022-12-11T03:28:26.815Z,100462.81
2022-12-11T03:30:55.263Z,100455.91
2022-12-11T03:33:30.568Z,100464.63
2022-12-11T03:36:04.200Z,100461.19
2022-12-11T03:38:37.372Z,100462.00
2022-12-11T03:41:09.101Z,100460.44
2022-12-11T03:43:38.240Z,100468.03
2022-12-11T03:46:07.705Z,100480.59
2022-12-11T03:48:40.482Z,100471.25
2022-12-11T03:51:09.222Z,100471.38
2022-12-11T03:53:39.565Z,100470.66
2022-12-11T03:56:11.193Z,100462.94
2022-12-11T03:58:39.533Z,100469.88
2022-12-11T04:01:10.146Z,100472.50
2022-12-11T04:03:40.522Z,100468.09
2022-12-11T04:06:08.722Z,100461.88
2022-12-11T04:08:36.428Z,100461.03
2022-12-11T04:11:22.875Z,100456.06
2022-12-11T04:14:11.157Z,100448.19
2022-12-11T04:16:38.260Z,100450.84
2022-12-11T04:19:24.992Z,100449.09
2022-12-11T04:22:10.470Z,100446.59
2022-12-11T04:24:38.239Z,100451.72
2022-12-11T04:27:06.098Z,100452.66
2022-12-11T04:29:33.813Z,100445.81
2022-12-11T04:32:01.660Z,100450.91
2022-12-11T04:34:31.189Z,100449.28
2022-12-11T04:36:59.247Z,100451.97
2022-12-11T04:39:27.021Z,100450.09
2022-12-11T04:41:54.758Z,100445.97
2022-12-11T04:44:22.493Z,100446.03
2022-12-11T04:46:50.352Z,100448.59
2022-12-11T04:49:18.111Z,100447.78
2022-12-11T04:51:47.222Z,100440.16
2022-12-11T04:54:14.962Z,100450.34
2022-12-11T04:56:42.662Z,100450.41
2022-12-11T04:59:10.603Z,100447.09
2022-12-11T05:01:38.344Z,100440.31
2022-12-11T05:04:06.217Z,100432.66
2022-12-11T05:06:34.076Z,100442.06
2022-12-11T05:09:03.165Z,100443.00
2022-12-11T05:11:31.033Z,100443.94
2022-12-11T05:13:58.767Z,100440.44
2022-12-11T05:16:26.487Z,100429.22
2022-12-11T05:18:54.239Z,100424.94
2022-12-11T05:21:21.960Z,100422.38
2022-12-11T05:23:49.730Z,100418.00
2022-12-11T05:26:21.062Z,100418.06
2022-12-11T05:28:54.257Z,100413.03
2022-12-11T05:31:23.259Z,100419.03
2022-12-11T05:33:51.886Z,100415.50
2022-12-11T05:36:21.712Z,100415.53
2022-12-11T05:38:49.848Z,100413.03
2022-12-11T05:41:21.584Z,100413.09
2022-12-11T05:43:49.456Z,100401.00
2022-12-11T05:46:19.360Z,100406.25
2022-12-11T05:48:49.873Z,100405.41
2022-12-11T05:51:18.773Z,100411.28
2022-12-11T05:53:50.589Z,100406.88
2022-12-11T05:56:22.750Z,100409.47
2022-12-11T05:58:50.587Z,100411.28
2022-12-11T06:01:20.614Z,100413.84
2022-12-11T06:03:48.629Z,100416.13
2022-12-11T06:06:16.727Z,100419.69
2022-12-11T06:08:44.463Z,100418.81
2022-12-11T06:11:13.956Z,100429.09
2022-12-11T06:13:43.018Z,100418.00
2022-12-11T06:16:11.221Z,100413.75
2022-12-11T06:18:40.953Z,100417.22
2022-12-11T06:21:16.305Z,100418.13
2022-12-11T06:23:45.235Z,100413.09
2022-12-11T06:26:13.492Z,100408.72
2022-12-11T06:28:41.302Z,100410.41
2022-12-11T06:31:10.624Z,100413.09
2022-12-11T06:33:39.063Z,100406.25
2022-12-11T06:36:08.904Z,100420.06
2022-12-11T06:38:37.216Z,100407.84
2022-12-11T06:41:06.955Z,100406.09
2022-12-11T06:43:35.632Z,100407.84
2022-12-11T06:46:05.204Z,100405.22
2022-12-11T06:48:34.764Z,100407.03
2022-12-11T06:51:07.608Z,100404.44
2022-12-11T06:53:35.419Z,100401.75
2022-12-11T06:56:05.217Z,100406.13
2022-12-11T06:58:34.675Z,100410.22
2022-12-11T07:01:02.851Z,100412.03
2022-12-11T07:03:30.672Z,100413.78
2022-12-11T07:06:03.274Z,100415.50
2022-12-11T07:08:31.934Z,100418.94
2022-12-11T07:11:04.478Z,100418.00
2022-12-11T07:13:32.262Z,100422.38
2022-12-11T07:16:00.418Z,100425.00
2022-12-11T07:18:28.710Z,100424.13
2022-12-11T07:20:59.193Z,100425.97
2022-12-11T07:23:28.678Z,100432.66
2022-12-11T07:25:57.662Z,100428.47
2022-12-11T07:28:26.045Z,100425.81
2022-12-11T07:30:53.828Z,100432.66
2022-12-11T07:33:21.548Z,100423.28
2022-12-11T07:35:49.379Z,100430.09
2022-12-11T07:38:18.239Z,100425.78
2022-12-11T07:40:47.318Z,100416.41
2022-12-11T07:43:15.030Z,100425.00
2022-12-11T07:45:42.837Z,100419.94
2022-12-11T07:48:10.805Z,100425.81
2022-12-11T07:50:40.006Z,100420.75
2022-12-11T07:53:07.851Z,100420.75
2022-12-11T07:55:35.629Z,100419.03
2022-12-11T07:58:05.017Z,100426.72
2022-12-11T08:00:32.775Z,100435.94
2022-12-11T08:03:00.772Z,100429.16
2022-12-11T08:05:28.477Z,100421.28
2022-12-11T08:07:56.586Z,100430.78
2022-12-11T08:10:24.355Z,100426.41
2022-12-11T08:12:52.184Z,100417.13
2022-12-11T08:15:21.279Z,100430.03
2022-12-11T08:17:49.404Z,100419.75
2022-12-11T08:20:17.866Z,100420.50
2022-12-11T08:22:45.583Z,100426.41
2022-12-11T08:25:13.663Z,100428.16
2022-12-11T08:27:41.533Z,100425.72
2022-12-11T08:30:10.712Z,100426.47
2022-12-11T08:32:39.811Z,100413.53
2022-12-11T08:35:08.864Z,100416.19
2022-12-11T08:37:36.766Z,100401.66
2022-12-11T08:40:05.164Z,100405.22
2022-12-11T08:42:32.845Z,100419.84
2022-12-11T08:45:00.612Z,100414.66
2022-12-11T08:47:28.600Z,100417.41
2022-12-11T08:49:57.754Z,100412.16
2022-12-11T08:52:25.571Z,100409.66
2022-12-11T08:54:53.351Z,100416.50
2022-12-11T08:57:21.075Z,100418.34
2022-12-11T08:59:49.009Z,100419.28
2022-12-11T09:02:16.842Z,100416.50
2022-12-11T09:04:44.624Z,100427.00
2022-12-11T09:07:13.716Z,100424.44
2022-12-11T09:09:41.496Z,100421.72
2022-12-11T09:12:09.242Z,100420.91
2022-12-11T09:14:37.600Z,100415.94
2022-12-11T09:17:06.338Z,100429.63
2022-12-11T09:19:34.824Z,100426.94
2022-12-11T09:22:02.697Z,100426.00
2022-12-11T09:24:32.136Z,100419.00
2022-12-11T09:26:59.865Z,100411.28
2022-12-11T09:29:27.667Z,100419.97
2022-12-11T09:31:55.339Z,100422.50
2022-12-11T09:34:28.947Z,100420.88
2022-12-11T09:36:57.656Z,100415.78
2022-12-11T09:39:25.585Z,100422.75
2022-12-11T09:42:03.640Z,100423.66
2022-12-11T09:44:38.962Z,100423.78
2022-12-11T09:47:20.354Z,100431.38
2022-12-11T09:49:50.730Z,100427.97
2022-12-11T09:52:22.199Z,100425.59
2022-12-11T09:54:53.638Z,100423.00
2022-12-11T09:57:32.711Z,100419.84
2022-12-11T10:00:11.234Z,100419.84
2022-12-11T10:02:53.744Z,100416.56
2022-12-11T10:05:30.825Z,100422.56
2022-12-11T10:08:04.253Z,100416.66
2022-12-11T10:10:42.664Z,100410.63
2022-12-11T10:13:25.128Z,100406.31
2022-12-11T10:15:58.903Z,100403.13
2022-12-11T10:18:29.364Z,100394.69
2022-12-11T10:20:57.616Z,100409.28
2022-12-11T10:23:35.444Z,100390.34
2022-12-11T10:26:08.206Z,100392.69
2022-12-11T10:28:37.543Z,100392.63
2022-12-11T10:31:16.895Z,100392.56
2022-12-11T10:33:55.988Z,100379.84
2022-12-11T10:36:28.816Z,100390.16
2022-12-11T10:38:56.857Z,100384.97
2022-12-11T10:41:32.242Z,100380.66
2022-12-11T10:44:01.833Z,100369.28
2022-12-11T10:46:32.870Z,100372.00
2022-12-11T10:49:01.813Z,100371.28
2022-12-11T10:51:37.210Z,100367.16
2022-12-11T10:54:07.960Z,100372.25
2022-12-11T10:56:38.539Z,100366.19
2022-12-11T10:59:08.048Z,100364.38
2022-12-11T11:01:36.029Z,100371.47
2022-12-11T11:04:07.262Z,100357.53
2022-12-11T11:06:36.193Z,100364.38
2022-12-11T11:09:04.351Z,100364.41
2022-12-11T11:11:34.501Z,100355.94
2022-12-11T11:14:13.393Z,100359.34
2022-12-11T11:16:42.581Z,100361.03
2022-12-11T11:19:20.849Z,100351.66
2022-12-11T11:21:53.560Z,100353.50
2022-12-11T11:24:40.954Z,100356.13
2022-12-11T11:27:15.592Z,100349.41
2022-12-11T11:29:48.964Z,100346.13
2022-12-11T11:32:24.666Z,100337.50
2022-12-11T11:34:52.492Z,100334.84
2022-12-11T11:37:27.555Z,100333.22
2022-12-11T11:40:02.994Z,100333.56
2022-12-11T11:42:42.087Z,100329.47
2022-12-11T11:45:18.830Z,100319.41
2022-12-11T11:47:55.851Z,100317.63
2022-12-11T11:50:26.972Z,100320.22
2022-12-11T11:53:03.281Z,100314.09
2022-12-11T11:55:42.097Z,100319.19
2022-12-11T11:58:16.512Z,100316.84
2022-12-11T12:00:45.660Z,100305.59
2022-12-11T12:03:16.418Z,100312.50
2022-12-11T12:05:53.932Z,100313.88
2022-12-11T12:08:35.232Z,100320.69
2022-12-11T12:11:08.487Z,100313.88
2022-12-11T12:13:50.416Z,100322.31
2022-12-11T12:16:52.207Z,100320.59
2022-12-11T12:19:30.988Z,100329.06
2022-12-11T12:22:10.704Z,100326.66
2022-12-11T12:24:48.112Z,100328.31
2022-12-11T12:27:50.932Z,100325.75
2022-12-11T12:30:16.213Z,100327.50
2022-12-11T12:33:03.791Z,100330.88
2022-12-11T12:35:36.562Z,100320.44
2022-12-11T12:38:12.276Z,100318.03
2022-12-11T12:40:45.793Z,100318.94
2022-12-11T12:43:40.722Z,100314.75
2022-12-11T12:46:21.897Z,100297.53
2022-12-11T12:48:59.707Z,100307.81
2022-12-11T12:51:38.993Z,100306.09
2022-12-11T12:54:12.607Z,100304.19
2022-12-11T12:56:43.511Z,100304.25
2022-12-11T12:59:22.064Z,100311.94
2022-12-11T13:01:54.978Z,100295.66
2022-12-11T13:07:30.661Z,100300.72
2022-12-11T13:10:02.636Z,100286.97
2022-12-11T13:12:42.470Z,100292.25
2022-12-11T13:15:32.262Z,100300.88
2022-12-11T13:18:01.136Z,100293.22
2022-12-11T13:20:32.320Z,100293.03
2022-12-11T13:23:26.973Z,100294.91
2022-12-11T13:25:56.606Z,100295.72
2022-12-11T13:28:28.478Z,100289.81
2022-12-11T13:31:06.008Z,100287.53
2022-12-11T13:33:39.494Z,100285.94
2022-12-11T13:36:25.228Z,100286.00
2022-12-11T13:38:56.059Z,100295.56
2022-12-11T13:41:24.646Z,100299.75
2022-12-11T13:43:53.767Z,100298.19
2022-12-11T13:46:26.226Z,100301.28
2022-12-11T13:48:57.185Z,100307.31
2022-12-11T13:51:29.158Z,100308.03
2022-12-11T13:54:06.078Z,100304.41
2022-12-11T13:56:34.239Z,100306.19
2022-12-11T13:59:02.432Z,100304.41
2022-12-11T14:01:33.138Z,100300.09
2022-12-11T14:04:08.133Z,100313.91
2022-12-11T14:06:39.241Z,100309.63
2022-12-11T14:09:09.241Z,100307.94
2022-12-11T14:11:41.324Z,100305.56
2022-12-11T14:14:19.357Z,100310.03
2022-12-11T14:16:49.167Z,100311.78
2022-12-11T14:19:20.116Z,100320.34
2022-12-11T14:21:59.204Z,100327.03
2022-12-11T14:24:27.131Z,100320.09
2022-12-11T14:26:55.989Z,100314.06
2022-12-11T14:29:29.780Z,100318.28
2022-12-11T14:32:00.888Z,100314.78
2022-12-11T14:34:34.297Z,100321.69
2022-12-11T14:37:06.864Z,100320.88
2022-12-11T14:39:39.238Z,100326.63
2022-12-11T14:42:11.763Z,100329.19
2022-12-11T14:44:48.942Z,100327.50
2022-12-11T14:47:21.381Z,100327.50
2022-12-11T14:49:53.582Z,100320.72
2022-12-11T14:52:26.618Z,100332.78
2022-12-11T14:54:57.543Z,100334.44
2022-12-11T14:57:29.956Z,100336.09
2022-12-11T14:59:58.751Z,100336.09
2022-12-11T15:02:30.693Z,100339.50
2022-12-11T15:05:04.009Z,100335.16
2022-12-11T15:07:33.257Z,100326.53
2022-12-11T15:10:00.930Z,100333.41
2022-12-11T15:12:28.824Z,100328.25
2022-12-11T15:15:00.693Z,100332.44
2022-12-11T15:17:32.930Z,100325.47
2022-12-11T15:20:06.022Z,100336.69
2022-12-11T15:22:37.087Z,100339.28
2022-12-11T15:25:05.847Z,100335.00
2022-12-11T15:27:36.688Z,100337.56
2022-12-11T15:30:17.788Z,100328.91
2022-12-11T15:32:45.499Z,100333.97
2022-12-11T15:35:24.025Z,100342.59
2022-12-11T15:37:56.199Z,100335.75
2022-12-11T15:40:24.983Z,100340.91
2022-12-11T15:42:54.752Z,100341.75
2022-12-11T15:45:24.427Z,100345.22
2022-12-11T15:47:53.202Z,100346.06
2022-12-11T15:50:23.269Z,100341.72
2022-12-11T15:52:52.189Z,100332.25
2022-12-11T15:55:23.519Z,100337.38
2022-12-11T15:57:59.083Z,100341.69
2022-12-11T16:00:28.048Z,100347.72
2022-12-11T16:02:59.330Z,100340.88
2022-12-11T16:05:27.866Z,100350.28
2022-12-11T16:07:59.294Z,100347.66
2022-12-11T16:10:28.635Z,100344.16
2022-12-11T16:12:59.485Z,100346.69
2022-12-11T16:15:27.801Z,100351.06
2022-12-11T16:18:03.269Z,100344.19
2022-12-11T16:20:32.124Z,100339.91
2022-12-11T16:22:59.917Z,100345.78
2022-12-11T16:25:29.286Z,100347.53
2022-12-11T16:27:58.031Z,100346.69
2022-12-11T16:30:26.437Z,100350.16
2022-12-11T16:32:54.415Z,100341.56
2022-12-11T16:35:23.090Z,100343.25
2022-12-11T16:37:51.910Z,100342.34
2022-12-11T16:40:19.970Z,100335.44
2022-12-11T16:42:50.267Z,100345.69
2022-12-11T16:45:19.864Z,100344.78
2022-12-11T16:47:47.691Z,100340.53
2022-12-11T16:50:17.363Z,100343.13
2022-12-11T16:52:47.378Z,100336.31
2022-12-11T16:55:18.244Z,100343.13
2022-12-11T16:57:47.575Z,100345.72
2022-12-11T17:00:18.266Z,100350.09
2022-12-11T17:02:46.867Z,100342.34
2022-12-11T17:05:15.124Z,100344.81
2022-12-11T17:07:43.278Z,100336.19
2022-12-11T17:10:11.194Z,100336.19
2022-12-11T17:12:39.242Z,100337.09
2022-12-11T17:15:08.151Z,100341.38
2022-12-11T17:17:37.399Z,100330.97
2022-12-11T17:20:05.772Z,100333.50
2022-12-11T17:22:33.544Z,100335.97
2022-12-11T17:25:01.499Z,100338.69
2022-12-11T17:27:29.332Z,100337.81
2022-12-11T17:29:57.330Z,100342.88
2022-12-11T17:32:25.250Z,100337.81
2022-12-11T17:34:54.399Z,100342.06
2022-12-11T17:37:22.135Z,100340.31
2022-12-11T17:39:50.310Z,100334.34
2022-12-11T17:42:18.081Z,100332.69
2022-12-11T17:44:46.368Z,100344.72
2022-12-11T17:47:14.185Z,100344.75
2022-12-11T17:49:42.024Z,100339.44
2022-12-11T17:52:11.252Z,100337.63
2022-12-11T17:54:40.216Z,100334.25
2022-12-11T17:57:08.009Z,100336.88
2022-12-11T17:59:35.732Z,100330.03
2022-12-11T18:02:03.582Z,100338.47
2022-12-11T18:04:31.392Z,100321.31
2022-12-11T18:06:59.076Z,100331.53
2022-12-11T18:09:28.272Z,100332.41
2022-12-11T18:11:56.023Z,100323.81
2022-12-11T18:14:23.953Z,100324.63
2022-12-11T18:16:52.508Z,100317.06
2022-12-11T18:19:22.099Z,100333.97
2022-12-11T18:21:50.065Z,100340.84
2022-12-11T18:24:17.913Z,100339.13
2022-12-11T18:26:47.226Z,100341.69
2022-12-11T18:29:15.197Z,100334.81
2022-12-11T18:31:43.215Z,100333.06
2022-12-11T18:34:11.680Z,100337.44
2022-12-11T18:36:40.607Z,100344.31
2022-12-11T18:39:08.780Z,100340.06
2022-12-11T18:41:36.709Z,100346.03
2022-12-11T18:44:09.769Z,100341.75
2022-12-11T18:46:39.348Z,100342.63
2022-12-11T18:49:07.449Z,100347.81
2022-12-11T18:51:35.863Z,100335.75
2022-12-11T18:54:03.708Z,100333.97
2022-12-11T18:56:31.472Z,100342.56
2022-12-11T18:58:59.433Z,100340.84
2022-12-11T19:01:30.146Z,100337.28
2022-12-11T19:04:03.535Z,100340.63
2022-12-11T19:06:35.346Z,100339.72
2022-12-11T19:09:06.304Z,100337.19
2022-12-11T19:11:35.958Z,100334.63
2022-12-11T19:14:05.119Z,100345.81
2022-12-11T19:16:36.517Z,100342.34
2022-12-11T19:19:07.352Z,100326.13
2022-12-11T19:21:35.405Z,100344.16
2022-12-11T19:24:03.161Z,100342.41
2022-12-11T19:26:31.526Z,100343.34
2022-12-11T19:29:00.199Z,100349.38
2022-12-11T19:31:29.592Z,100342.53
2022-12-11T19:33:59.063Z,100338.16
2022-12-11T19:36:28.378Z,100343.34
2022-12-11T19:39:01.124Z,100327.88
2022-12-11T19:41:30.508Z,100329.59
2022-12-11T19:43:59.614Z,100333.97
2022-12-11T19:46:29.112Z,100337.50
2022-12-11T19:48:59.546Z,100338.44
2022-12-11T19:51:31.323Z,100341.03
2022-12-11T19:54:00.284Z,100329.88
2022-12-11T19:56:28.057Z,100336.81
2022-12-11T19:58:56.213Z,100333.31
2022-12-11T20:01:28.580Z,100337.50
2022-12-11T20:04:00.100Z,100334.91
2022-12-11T20:06:28.528Z,100343.41
2022-12-11T20:08:56.942Z,100338.31
2022-12-11T20:11:25.096Z,100338.34
2022-12-11T20:13:55.369Z,100341.72
2022-12-11T20:16:45.793Z,100347.88
2022-12-11T20:19:13.453Z,100335.88
2022-12-11T20:21:42.130Z,100335.88
2022-12-11T20:24:10.372Z,100344.47
2022-12-11T20:26:38.517Z,100332.38
2022-12-11T20:29:08.321Z,100333.22
2022-12-11T20:31:37.851Z,100338.44
2022-12-11T20:34:06.230Z,100338.38
2022-12-11T20:36:35.651Z,100326.38
2022-12-11T20:39:04.830Z,100330.53
2022-12-11T20:41:32.684Z,100330.53
2022-12-11T20:44:00.508Z,100330.53
2022-12-11T20:46:28.845Z,100338.16
2022-12-11T20:48:58.655Z,100334.72
2022-12-11T20:51:27.974Z,100328.63
2022-12-11T20:53:59.554Z,100326.91
2022-12-11T20:56:29.741Z,100331.97
2022-12-11T20:58:57.869Z,100332.91
2022-12-11T21:01:27.350Z,100327.75
2022-12-11T21:03:55.149Z,100329.34
2022-12-11T21:06:26.183Z,100327.66
2022-12-11T21:08:54.230Z,100325.88
2022-12-11T21:11:23.464Z,100331.06
2022-12-11T21:13:51.794Z,100334.47
2022-12-11T21:16:20.603Z,100323.28
2022-12-11T21:18:48.536Z,100328.50
2022-12-11T21:21:17.069Z,100332.81
2022-12-11T21:23:45.463Z,100334.50
2022-12-11T21:26:14.209Z,100333.56
2022-12-11T21:28:43.687Z,100332.75
2022-12-11T21:31:15.389Z,100333.63
2022-12-11T21:33:43.476Z,100336.25
2022-12-11T21:36:13.219Z,100331.16
2022-12-11T21:38:43.251Z,100339.84
2022-12-11T21:41:13.520Z,100342.53
2022-12-11T21:44:14.592Z,100338.31
2022-12-11T21:46:31.132Z,100336.59
2022-12-11T21:48:58.956Z,100333.88
2022-12-11T21:51:35.719Z,100332.03
2022-12-11T21:54:06.174Z,100336.31
2022-12-11T21:56:34.097Z,100333.84
2022-12-11T21:59:03.232Z,100337.13
2022-12-11T22:01:35.162Z,100334.56
2022-12-11T22:04:03.286Z,100340.63
2022-12-11T22:06:31.747Z,100343.19
2022-12-11T22:08:59.538Z,100348.44
2022-12-11T22:11:30.448Z,100339.75
2022-12-11T22:13:58.880Z,100346.56
2022-12-11T22:16:28.386Z,100346.66
2022-12-11T22:18:56.485Z,100344.88
2022-12-11T22:21:25.409Z,100363.00
2022-12-11T22:23:53.178Z,100363.00
2022-12-11T22:26:23.594Z,100352.66
2022-12-11T22:28:51.911Z,100357.69
2022-12-11T22:31:21.931Z,100356.00
2022-12-11T22:33:53.758Z,100357.75
2022-12-11T22:36:22.266Z,100361.19
2022-12-11T22:38:50.515Z,100365.41
2022-12-11T22:41:23.903Z,100359.44
2022-12-11T22:43:52.288Z,100362.00
2022-12-11T22:46:23.257Z,100374.03
2022-12-11T22:48:52.607Z,100370.50
2022-12-11T22:51:21.136Z,100367.03
2022-12-11T22:53:49.186Z,100371.38
2022-12-11T22:56:17.352Z,100372.13
2022-12-11T22:58:45.103Z,100367.03
2022-12-11T23:01:15.661Z,100369.63
2022-12-11T23:03:43.754Z,100368.69
2022-12-11T23:06:15.815Z,100369.50
2022-12-11T23:08:44.778Z,100370.34
2022-12-11T23:11:15.715Z,100365.19
2022-12-11T23:13:43.932Z,100365.25
2022-12-11T23:16:12.695Z,100362.69
2022-12-11T23:18:40.843Z,100359.22
2022-12-11T23:21:09.883Z,100368.59
2022-12-11T23:23:39.126Z,100372.03
2022-12-11T23:26:09.169Z,100371.91
2022-12-11T23:28:37.040Z,100368.69
2022-12-11T23:31:04.875Z,100374.72
2022-12-11T23:33:32.714Z,100373.81
2022-12-11T23:36:00.985Z,100362.41
2022-12-11T23:38:28.781Z,100365.84
2022-12-11T23:41:00.301Z,100364.84
2022-12-11T23:43:28.484Z,100363.91
2022-12-11T23:45:57.576Z,100368.94
2022-12-11T23:48:25.548Z,100368.19
2022-12-11T23:50:53.586Z,100368.19
2022-12-11T23:53:21.516Z,100370.69
2022-12-11T23:55:49.280Z,100372.44
2022-12-11T23:58:18.310Z,100369.81
